Flight Track Log - Related Links

Times and Time Zones

All times are in EST time to prevent confusion due to time zone crossing. See the AAY846 flight status page for this flight to view local times or setup timezone preferences in your user account.

Time Position Orientation Groundspeed Altitude Reporting Facility
EST Latitude Longitude Course Direction KTS MPH feet Rate Location/Type
Mon 10:34:10 AM 28.7833 -81.2500 283° West 196 226 800  Level Orlando TRACON
Mon 10:35:23 AM 28.8000 -81.3333 283° West 239 275 3,100 2,025 Climbing Orlando TRACON
Mon 10:36:47 AM 28.9025 -81.3511 351° North 294 338 6,100 1,625 Climbing Jacksonville Center
Mon 10:37:47 AM 28.9819 -81.3711 348° North 294 338 7,000 650 Climbing Jacksonville Center
Mon 10:38:47 AM 29.0594 -81.3864 350° North 294 338 7,400 1,500 Climbing Jacksonville Center
Mon 10:39:47 AM 29.1386 -81.3925 356° North 294 338 10,000 1,950 Climbing Jacksonville Center
Mon 10:40:47 AM 29.2328 -81.4006 356° North 307 353 11,300 1,600 Climbing Jacksonville Center
Mon 10:41:47 AM 29.3372 -81.4133 354° North 345 397 13,200 2,200 Climbing Jacksonville Center
Mon 10:42:47 AM 29.4647 -81.4281 354° North 417 480 15,700 2,300 Climbing Jacksonville Center
Mon 10:43:47 AM 29.5819 -81.4406 355° North 423 487 17,800 1,900 Climbing Jacksonville Center
Mon 10:44:47 AM 29.7011 -81.4556 354° North 423 487 19,500 1,700 Climbing Jacksonville Center
Mon 10:45:47 AM 29.8103 -81.5186 333° Northwest 423 487 21,200 1,750 Climbing Jacksonville Center
Mon 10:46:47 AM 29.9175 -81.5914 330° Northwest 423 487 23,000 1,934 Climbing Jacksonville Center
Mon 10:47:48 AM 30.0247 -81.6667 329° Northwest 438 504 25,100 2,000 Climbing Jacksonville Center
Mon 10:48:47 AM 30.1297 -81.7375 330° Northwest 449 517 27,000 2,000 Climbing Jacksonville Center
Mon 10:49:48 AM 30.2306 -81.8083 329° Northwest 430 495 29,100 1,537 Climbing Jacksonville Center
Mon 10:50:48 AM 30.3272 -81.8697 331° Northwest 430 495 30,100 1,059 Climbing Jacksonville Center
Mon 10:51:47 AM 30.4281 -81.9458 327° Northwest 435 501 31,200 1,109 Climbing Jacksonville Center
Mon 10:52:47 AM 30.5286 -82.0172 329° Northwest 435 501 32,300 893 Climbing Jacksonville Center
Mon 10:53:48 AM 30.6294 -82.0886 329° Northwest 429 494 33,000 350 Climbing Jacksonville Center
Mon 10:54:47 AM 30.7300 -82.1603 329° Northwest 429 494 33,000  Level Jacksonville Center
Mon 10:55:48 AM 30.8347 -82.2344 329° Northwest 434 499 33,000  Level Jacksonville Center
Mon 10:56:48 AM 30.9417 -82.3089 329° Northwest 434 499 33,000  Level Jacksonville Center
Mon 10:57:48 AM 31.0442 -82.3808 329° Northwest 434 499 33,000  Level Jacksonville Center
Mon 10:59:53 AM 31.2783 -82.5397 330° Northwest 437 503 33,000  Level Atlanta Center
Mon 11:00:53 AM 31.3753 -82.6161 326° Northwest 437 503 33,000  Level Atlanta Center
Mon 11:01:53 AM 31.4783 -82.6900 329° Northwest 432 497 33,000  Level Atlanta Center
Mon 11:02:53 AM 31.5792 -82.7592 330° Northwest 432 497 33,000  Level Atlanta Center
Mon 11:03:53 AM 31.6803 -82.8333 328° Northwest 432 497 33,000  Level Atlanta Center
Mon 11:04:53 AM 31.7811 -82.9053 329° Northwest 432 497 33,000  Level Atlanta Center
Mon 11:05:53 AM 31.8839 -82.9797 328° Northwest 432 497 33,000  Level Atlanta Center
Mon 11:06:53 AM 31.9869 -83.0497 330° Northwest 432 497 33,000  Level Atlanta Center
Mon 11:07:53 AM 32.0897 -83.1219 329° Northwest 432 497 33,000 250 Level Atlanta Center
Mon 11:08:53 AM 32.1925 -83.1897 331° Northwest 432 497 33,500 500 Climbing Atlanta Center
Mon 11:09:53 AM 32.2953 -83.2600 330° Northwest 427 491 34,000 250 Climbing Atlanta Center
Mon 11:10:53 AM 32.3978 -83.3281 331° Northwest 427 491 34,000  Level Atlanta Center
Mon 11:11:53 AM 32.4964 -83.3986 329° Northwest 422 486 34,000  Level Atlanta Center
Mon 11:12:53 AM 32.5969 -83.4669 330° Northwest 422 486 34,000  Level Atlanta Center
Mon 11:13:53 AM 32.6994 -83.5328 332° Northwest 422 486 34,000  Level Atlanta Center
Mon 11:14:53 AM 32.8000 -83.6039 329° Northwest 422 486 34,000  Level Atlanta Center
Mon 11:15:53 AM 32.9025 -83.6728 331° Northwest 422 486 34,000  Level Atlanta Center
Mon 11:16:53 AM 33.0028 -83.7467 328° Northwest 422 486 34,000  Level Atlanta Center
Mon 11:17:53 AM 33.1053 -83.8181 330° Northwest 427 491 34,000  Level Atlanta Center
Mon 11:18:53 AM 33.2075 -83.8850 331° Northwest 422 486 34,000  Level Atlanta Center
Mon 11:19:53 AM 33.3100 -83.9567 330° Northwest 422 486 34,000  Level Atlanta Center
Mon 11:20:53 AM 33.4144 -84.0289 330° Northwest 427 491 34,000  Level Atlanta Center
Mon 11:21:53 AM 33.5144 -84.1011 329° Northwest 420 483 34,000  Level Atlanta Center
Mon 11:22:53 AM 33.6167 -84.1711 330° Northwest 425 489 34,000  Level Atlanta Center
Mon 11:23:53 AM 33.7064 -84.2386 328° Northwest 425 489 34,000  Level Atlanta Center
Mon 11:24:53 AM 33.8064 -84.3064 331° Northwest 419 482 34,000  Level Atlanta Center
Mon 11:25:53 AM 33.9022 -84.3792 328° Northwest 424 488 34,000  Level Atlanta Center
Mon 11:26:53 AM 34.0169 -84.4572 331° Northwest 424 488 34,000  Level Atlanta Center
Mon 11:27:53 AM 34.1167 -84.5281 330° Northwest 424 488 34,000  Level Atlanta Center
Mon 11:28:53 AM 34.2231 -84.5992 331° Northwest 424 488 34,000  Level Atlanta Center
Mon 11:29:53 AM 34.3125 -84.6650 329° Northwest 424 488 34,000  Level Atlanta Center
Mon 11:30:53 AM 34.4100 -84.7361 329° Northwest 419 482 34,000  Level Atlanta Center
Mon 11:31:53 AM 34.5078 -84.8050 330° Northwest 414 476 34,000  Level Atlanta Center
Mon 11:32:53 AM 34.6094 -84.8767 330° Northwest 409 471 34,000  Level Atlanta Center
Mon 11:33:53 AM 34.7133 -84.9561 328° Northwest 409 471 34,000  Level Atlanta Center
Mon 11:34:53 AM 34.8108 -85.0281 329° Northwest 409 471 34,000  Level Atlanta Center
Mon 11:35:53 AM 34.9083 -85.0975 330° Northwest 409 471 34,000  Level Atlanta Center
Mon 11:36:53 AM 35.0100 -85.1697 330° Northwest 414 476 34,000  Level Atlanta Center
Mon 11:39:25 AM 35.2406 -85.3375 329° Northwest 407 468 34,000  Level Memphis Center
Mon 11:40:27 AM 35.3367 -85.4103 328° Northwest 405 466 34,000  Level Memphis Center
Mon 11:41:29 AM 35.4342 -85.4808 329° Northwest 405 466 34,000  Level Memphis Center
Mon 11:42:31 AM 35.5506 -85.5692 328° Northwest 406 467 34,000  Level Memphis Center
Mon 11:43:32 AM 35.6478 -85.6414 329° Northwest 405 466 34,000  Level Memphis Center
Mon 11:44:34 AM 35.7444 -85.7142 329° Northwest 406 467 34,000  Level Memphis Center
Mon 11:45:36 AM 35.8406 -85.7869 328° Northwest 404 465 34,000  Level Memphis Center
Mon 11:46:38 AM 35.9414 -85.8622 329° Northwest 405 466 34,000  Level Memphis Center
Mon 11:47:40 AM 36.0372 -85.9344 329° Northwest 402 463 34,000  Level Memphis Center
Mon 11:48:41 AM 36.1333 -86.0075 328° Northwest 401 461 34,000  Level Memphis Center
Mon 11:49:43 AM 36.2292 -86.0803 329° Northwest 401 461 34,000  Level Memphis Center
Mon 11:50:45 AM 36.3244 -86.1522 329° Northwest 399 459 34,000  Level Memphis Center
Mon 11:51:47 AM 36.4356 -86.2364 329° Northwest 399 459 34,000  Level Memphis Center
Mon 11:52:49 AM 36.5308 -86.3086 329° Northwest 400 460 34,000  Level Memphis Center
Mon 11:53:51 AM 36.6267 -86.3814 329° Northwest 401 461 34,000  Level Memphis Center
Mon 11:54:52 AM 36.7217 -86.4547 328° Northwest 401 461 34,000  Level Memphis Center
Mon 11:55:54 AM 36.8167 -86.5283 328° Northwest 400 460 34,000  Level Memphis Center
Mon 11:56:56 AM 36.9119 -86.6006 329° Northwest 398 458 34,000  Level Memphis Center
Mon 11:57:58 AM 37.0072 -86.6747 328° Northwest 401 461 34,000  Level Memphis Center
Mon 11:58:59 AM 37.1181 -86.7614 328° Northwest 400 460 34,000  Level Memphis Center
Mon 12:00:07 PM 37.2119 -86.8339 328° Northwest 397 457 34,000  Level Indianapolis Center
Mon 12:01:08 PM 37.3081 -86.9086 328° Northwest 402 463 34,000  Level Indianapolis Center
Mon 12:02:10 PM 37.4042 -86.9831 328° Northwest 403 464 34,000  Level Indianapolis Center
Mon 12:03:11 PM 37.5164 -87.0722 328° Northwest 405 466 34,000  Level Indianapolis Center
Mon 12:04:12 PM 37.6092 -87.1467 328° Northwest 410 472 34,000  Level Indianapolis Center
Mon 12:05:13 PM 37.7100 -87.2289 327° Northwest 408 470 34,000  Level Indianapolis Center
Mon 12:06:15 PM 37.8014 -87.3036 327° Northwest 408 470 34,000  Level Indianapolis Center
Mon 12:07:16 PM 37.8994 -87.3803 328° Northwest 409 471 34,000  Level Indianapolis Center
Mon 12:08:17 PM 37.9969 -87.4586 328° Northwest 410 472 34,000  Level Indianapolis Center
Mon 12:09:18 PM 38.0933 -87.5381 327° Northwest 407 468 34,000  Level Indianapolis Center
Mon 12:10:20 PM 38.1914 -87.6147 328° Northwest 408 470 34,000  Level Indianapolis Center
Mon 12:11:21 PM 38.2894 -87.6936 328° Northwest 411 473 34,000  Level Indianapolis Center
Mon 12:12:22 PM 38.3850 -87.7722 327° Northwest 407 468 34,000  Level Indianapolis Center
Mon 12:13:23 PM 38.4822 -87.8514 327° Northwest 409 471 34,000  Level Indianapolis Center
Mon 12:14:25 PM 38.5781 -87.9283 328° Northwest 405 466 34,000  Level Indianapolis Center
Mon 12:15:26 PM 38.6739 -88.0069 327° Northwest 407 468 34,000  Level Indianapolis Center
Mon 12:16:27 PM 38.7686 -88.0853 327° Northwest 403 464 34,000  Level Indianapolis Center
Mon 12:17:28 PM 38.8628 -88.1633 327° Northwest 400 460 34,000  Level Indianapolis Center
Mon 12:18:30 PM 38.9567 -88.2383 328° Northwest 396 456 34,000 -683 Level Indianapolis Center
Mon 12:19:31 PM 39.0686 -88.3297 328° Northwest 393 452 32,600 -1,328 Descending Indianapolis Center
Mon 12:20:32 PM 39.1603 -88.4053 327° Northwest 389 448 31,300 -1,279 Descending Indianapolis Center
Mon 12:21:33 PM 39.2508 -88.4803 327° Northwest 386 444 30,000 -1,268 Descending Indianapolis Center
Mon 12:22:35 PM 39.3467 -88.5594 327° Northwest 404 465 28,700 -1,317 Descending Indianapolis Center
Mon 12:23:36 PM 39.4408 -88.6372 327° Northwest 403 464 27,300 -1,574 Descending Indianapolis Center
Mon 12:24:37 PM 39.5278 -88.7128 326° Northwest 384 442 25,500 -1,659 Descending Indianapolis Center
Mon 12:25:39 PM 39.6061 -88.7789 327° Northwest 378 435 23,900 -1,854 Descending Indianapolis Center
Mon 12:26:40 PM 39.7117 -88.8653 328° Northwest 374 430 21,700 -1,967 Descending Indianapolis Center
Mon 12:27:41 PM 39.7956 -88.9397 326° Northwest 370 426 19,900 -1,688 Descending Indianapolis Center
Mon 12:28:16 PM 39.8442 -88.9825 326° Northwest 373 429 19,000 -1,446 Descending Chicago Center
Mon 12:29:04 PM 39.9158 -89.0414 328° Northwest 376 433 17,900 -1,582 Descending Kansas City Center
Mon 12:30:06 PM 40.0031 -89.1167 327° Northwest 377 434 16,100 -1,742 Descending Kansas City Center
Mon 12:31:08 PM 40.0908 -89.1903 327° Northwest 375 432 14,300 -1,708 Descending Kansas City Center
Mon 12:32:23 PM 40.1972 -89.2819 327° Northwest 378 435 12,200 -1,445 Descending Chicago Center
Mon 12:33:25 PM 40.2772 -89.3519 326° Northwest 353 406 11,000 -1,610 Descending Chicago Center
Mon 12:34:26 PM 40.3581 -89.4233 326° Northwest 311 358 8,900 -2,049 Descending Chicago Center
Mon 12:35:28 PM 40.4219 -89.4667 333° Northwest 279 321 6,800 -1,403 Descending Chicago Center
Mon 12:36:30 PM 40.4806 -89.5089 331° Northwest 257 296 6,000 -1,258 Descending Chicago Center
Mon 12:37:32 PM 40.5303 -89.5458 331° Northwest 230 265 4,200 -1,512 Descending Chicago Center
Mon 12:38:33 PM 40.5781 -89.5814 331° Northwest 211 243 2,900 -976 Descending Chicago Center
Mon 12:39:35 PM 40.6192 -89.6161 327° Northwest 193 222 2,200 -919 Descending Chicago Center
Mon 12:40:37 PM 40.6486 -89.6692 306° West 162 186 1,000 -780 Descending Chicago Center
Mon 12:41:38 PM 40.6683 -89.7039 307° West 151 174 600 -393 Descending Chicago Center

Login

Don't have an account? Register now (free) for customized features, flight alerts, and more!